Time;durP1;ratioP1;P1;durP2;ratioP2;P2;SDS_P1;SDS_P2;PMS_P1;PMS_P2;Temp;Humidity;BMP_temperature;BMP_pressure;BME280_temperature;BME280_humidity;BME280_pressure;Samples;Min_cycle;Max_cycle;Signal;HPM_P1;HPM_P2
2022/10/07 00:00:40;;;;;;;5.50;2.40;;;12.00;99.90;;;;;;5034354;28;20252;-73
2022/10/07 00:03:06;;;;;;;7.50;2.60;;;12.00;99.90;;;;;;5016566;28;20173;-73
2022/10/07 00:05:33;;;;;;;4.07;2.15;;;12.00;99.90;;;;;;5035225;28;20189;-73
2022/10/07 00:07:59;;;;;;;3.60;1.90;;;11.90;99.90;;;;;;5034340;28;20182;-73
2022/10/07 00:10:26;;;;;;;6.50;2.03;;;11.90;99.90;;;;;;5033970;28;20170;-79
2022/10/07 00:12:52;;;;;;;4.40;2.38;;;11.90;99.90;;;;;;5034082;28;20684;-79
2022/10/07 00:15:18;;;;;;;5.60;2.35;;;11.90;99.90;;;;;;5033717;28;20649;-79
2022/10/07 00:17:44;;;;;;;7.35;2.20;;;11.90;99.90;;;;;;5033531;28;20165;-79
2022/10/07 00:20:10;;;;;;;8.75;2.45;;;11.90;99.90;;;;;;5033752;28;20177;-79
2022/10/07 00:22:36;;;;;;;6.50;1.73;;;11.90;99.90;;;;;;5033727;28;20177;-79
2022/10/07 00:25:02;;;;;;;4.77;2.00;;;11.90;99.90;;;;;;5033513;28;20198;-79
2022/10/07 00:27:28;;;;;;;6.70;1.95;;;11.90;99.90;;;;;;5033870;28;20532;-79
2022/10/07 00:29:53;;;;;;;4.97;2.33;;;11.80;99.90;;;;;;5033628;28;20165;-80
2022/10/07 00:32:19;;;;;;;8.33;2.10;;;11.80;99.90;;;;;;5015984;28;20208;-79
2022/10/07 00:34:45;;;;;;;3.17;1.73;;;11.80;99.90;;;;;;5033207;28;20611;-81
2022/10/07 00:37:12;;;;;;;6.47;1.92;;;11.80;99.90;;;;;;5033560;28;20169;-81
2022/10/07 00:39:38;;;;;;;5.00;2.10;;;11.70;99.90;;;;;;5033701;28;20184;-81
2022/10/07 00:42:04;;;;;;;4.77;2.00;;;11.70;99.90;;;;;;5034541;28;20584;-81
2022/10/07 00:44:30;;;;;;;4.70;2.20;;;11.70;99.90;;;;;;5003182;28;20616;-81
2022/10/07 00:46:57;;;;;;;5.17;2.17;;;11.70;99.90;;;;;;4999484;28;20176;-80
2022/10/07 00:49:25;;;;;;;4.80;2.35;;;11.70;99.90;;;;;;5015824;28;20162;-81
2022/10/07 00:51:51;;;;;;;4.07;2.00;;;11.70;99.90;;;;;;5033272;28;20177;-79
2022/10/07 00:54:19;;;;;;;7.10;2.25;;;11.60;99.90;;;;;;5015282;28;20189;-79
2022/10/07 00:56:47;;;;;;;4.82;1.70;;;11.60;99.90;;;;;;5015667;28;20668;-79
2022/10/07 00:59:15;;;;;;;6.35;2.25;;;11.60;99.90;;;;;;5033240;28;20170;-79
2022/10/07 01:01:41;;;;;;;4.72;2.05;;;11.60;99.90;;;;;;5014434;28;20162;-80
2022/10/07 01:04:11;;;;;;;6.85;1.67;;;11.60;99.90;;;;;;5015001;28;20200;-79
2022/10/07 01:06:38;;;;;;;8.25;2.45;;;11.60;99.90;;;;;;5015374;28;20165;-79
2022/10/07 01:09:06;;;;;;;4.63;1.88;;;11.50;99.90;;;;;;5015323;28;20269;-79
2022/10/07 01:11:55;;;;;;;5.50;1.58;;;11.50;99.90;;;;;;5015050;28;20185;-79
2022/10/07 01:14:28;;;;;;;4.50;2.00;;;11.40;99.90;;;;;;5014772;28;20194;-81
2022/10/07 01:17:20;;;;;;;4.90;2.10;;;11.40;99.90;;;;;;5015320;28;20245;-81
2022/10/07 01:20:15;;;;;;;6.45;2.03;;;11.40;99.90;;;;;;5019129;28;20178;-81
2022/10/07 01:23:00;;;;;;;4.53;1.75;;;11.30;99.90;;;;;;5033089;28;20181;-79
2022/10/07 01:25:39;;;;;;;3.30;1.42;;;11.30;99.90;;;;;;5014622;28;20189;-81
2022/10/07 01:28:20;;;;;;;4.05;1.27;;;11.30;99.90;;;;;;5032530;28;20319;-81
2022/10/07 01:30:51;;;;;;;4.90;2.00;;;11.30;99.90;;;;;;5015024;28;20172;-79
2022/10/07 01:33:21;;;;;;;2.28;1.27;;;11.30;99.90;;;;;;5014813;28;20197;-81
2022/10/07 01:35:50;;;;;;;8.15;2.42;;;11.30;99.90;;;;;;5032456;28;20454;-73
2022/10/07 01:38:20;;;;;;;5.38;2.03;;;11.30;99.90;;;;;;5032309;28;20161;-73
2022/10/07 01:40:53;;;;;;;7.15;1.83;;;11.20;99.90;;;;;;5014573;28;20614;-73
2022/10/07 01:43:22;;;;;;;5.22;2.20;;;11.20;99.90;;;;;;5014432;28;20224;-73
2022/10/07 01:45:51;;;;;;;2.80;1.50;;;11.20;99.90;;;;;;5014315;28;20278;-73
2022/10/07 01:48:17;;;;;;;11.23;1.92;;;11.20;99.90;;;;;;5032257;28;20531;-73
2022/10/07 01:50:44;;;;;;;3.92;2.05;;;11.10;99.90;;;;;;5032209;28;20579;-73
2022/10/07 01:53:32;;;;;;;3.85;1.85;;;11.10;99.90;;;;;;5014339;28;20217;-73
2022/10/07 01:56:51;;;;;;;4.82;1.67;;;11.10;99.90;;;;;;5032076;28;20161;-73
2022/10/07 01:59:30;;;;;;;4.75;1.70;;;11.10;99.90;;;;;;5011204;28;20570;-73
2022/10/07 02:02:33;;;;;;;4.10;1.75;;;11.10;99.90;;;;;;5031944;28;20161;-73
2022/10/07 02:05:25;;;;;;;5.25;2.00;;;11.10;99.90;;;;;;5032047;28;20182;-74
2022/10/07 02:08:13;;;;;;;3.72;2.13;;;11.00;99.90;;;;;;5014132;28;20173;-74
2022/10/07 02:11:19;;;;;;;5.25;1.75;;;11.00;99.90;;;;;;5014150;28;20174;-74
2022/10/07 02:14:01;;;;;;;8.13;1.98;;;11.00;99.90;;;;;;5013422;28;20240;-74
2022/10/07 02:16:59;;;;;;;4.72;1.70;;;10.90;99.90;;;;;;5014101;28;20173;-73
2022/10/07 02:19:31;;;;;;;4.72;1.45;;;10.90;99.90;;;;;;5013992;28;20181;-74
2022/10/07 02:22:00;;;;;;;5.55;1.35;;;10.90;99.90;;;;;;5013985;28;20571;-73
2022/10/07 02:24:31;;;;;;;5.57;1.70;;;10.80;99.90;;;;;;5013621;28;20189;-73
2022/10/07 02:27:02;;;;;;;4.20;1.77;;;10.80;99.90;;;;;;5031523;28;20205;-73
2022/10/07 02:29:31;;;;;;;4.47;2.05;;;10.70;99.90;;;;;;4997558;28;20220;-73
2022/10/07 02:32:06;;;;;;;5.75;1.65;;;10.70;99.90;;;;;;5013597;28;20169;-73
2022/10/07 02:34:34;;;;;;;5.10;1.67;;;10.70;99.90;;;;;;5031366;28;20193;-73
2022/10/07 02:37:10;;;;;;;3.35;1.85;;;10.70;99.90;;;;;;5013931;28;20213;-73
2022/10/07 02:39:36;;;;;;;5.18;2.95;;;10.70;99.90;;;;;;5013997;28;20166;-73
2022/10/07 02:42:25;;;;;;;8.82;2.67;;;10.70;99.90;;;;;;5031284;28;20659;-75
2022/10/07 02:44:59;;;;;;;5.68;2.13;;;10.70;99.90;;;;;;4996907;28;20201;-75
2022/10/07 02:48:13;;;;;;;6.22;1.50;;;10.60;99.90;;;;;;5013514;28;20218;-75
2022/10/07 02:50:42;;;;;;;5.53;2.00;;;10.60;99.90;;;;;;4975825;28;20185;-75
2022/10/07 02:53:12;;;;;;;4.10;1.60;;;10.60;99.90;;;;;;5013522;28;20205;-75
2022/10/07 02:55:39;;;;;;;6.18;2.45;;;10.60;99.90;;;;;;5031025;28;20194;-75
2022/10/07 02:58:07;;;;;;;6.35;2.20;;;10.50;99.90;;;;;;5031410;28;20256;-75
2022/10/07 03:00:41;;;;;;;6.03;3.20;;;10.60;99.90;;;;;;5013599;28;20219;-75
2022/10/07 03:03:08;;;;;;;6.72;1.85;;;10.50;99.90;;;;;;5013407;28;20170;-75
2022/10/07 03:05:48;;;;;;;7.05;2.65;;;10.50;99.90;;;;;;5013240;28;20193;-75
2022/10/07 03:08:15;;;;;;;5.05;1.77;;;10.50;99.90;;;;;;5013428;28;20249;-75
2022/10/07 03:10:42;;;;;;;5.22;2.50;;;10.50;99.90;;;;;;5030985;28;20165;-75
2022/10/07 03:13:10;;;;;;;4.35;2.00;;;10.40;99.90;;;;;;5013776;28;20201;-75
2022/10/07 03:15:39;;;;;;;4.40;2.15;;;10.50;99.90;;;;;;5013128;28;20190;-75
2022/10/07 03:18:06;;;;;;;5.28;1.85;;;10.40;99.90;;;;;;4997376;28;20267;-74
2022/10/07 03:20:32;;;;;;;4.90;1.90;;;10.40;99.90;;;;;;5031209;28;20174;-74
2022/10/07 03:22:59;;;;;;;6.68;2.00;;;10.40;99.90;;;;;;5013422;28;20185;-74
2022/10/07 03:25:26;;;;;;;6.47;2.20;;;10.40;99.90;;;;;;5015663;28;20657;-75
2022/10/07 03:27:53;;;;;;;8.40;2.15;;;10.40;99.90;;;;;;5017046;28;20174;-74
2022/10/07 03:30:21;;;;;;;6.65;1.90;;;10.40;99.90;;;;;;5017002;28;20169;-74
2022/10/07 03:32:48;;;;;;;5.30;2.28;;;10.40;99.90;;;;;;5017101;28;20209;-74
2022/10/07 03:35:15;;;;;;;4.25;1.95;;;10.40;99.90;;;;;;5016711;28;20213;-74
2022/10/07 03:37:41;;;;;;;7.88;1.80;;;10.40;99.90;;;;;;5000888;28;20637;-74
2022/10/07 03:40:09;;;;;;;5.25;2.00;;;10.40;99.90;;;;;;5017010;28;20288;-75
2022/10/07 03:42:35;;;;;;;5.82;2.08;;;10.40;99.90;;;;;;5016945;28;20504;-75
2022/10/07 03:45:04;;;;;;;9.32;1.88;;;10.30;99.90;;;;;;5016380;28;20247;-75
2022/10/07 03:47:30;;;;;;;3.05;1.60;;;10.30;99.90;;;;;;5016804;28;20185;-74
2022/10/07 03:49:56;;;;;;;3.33;1.33;;;10.30;99.90;;;;;;5017436;28;20252;-75
2022/10/07 03:52:23;;;;;;;4.40;2.25;;;10.30;99.90;;;;;;5000050;28;21233;-74
2022/10/07 03:54:49;;;;;;;4.97;2.23;;;10.30;99.90;;;;;;5015458;28;20201;-75
2022/10/07 04:00:00;;;;;;;5.47;2.15;;;10.20;99.90;;;;;;4999385;28;20547;-74
2022/10/07 04:02:27;;;;;;;4.85;2.10;;;10.20;99.90;;;;;;4998600;28;20178;-75
2022/10/07 04:04:55;;;;;;;4.10;1.60;;;10.20;99.90;;;;;;4991556;28;20259;-75
2022/10/07 04:07:22;;;;;;;7.40;1.92;;;10.20;99.90;;;;;;5016358;28;20170;-74
2022/10/07 04:09:49;;;;;;;5.40;2.78;;;10.20;99.90;;;;;;5016202;28;20169;-74
2022/10/07 04:12:15;;;;;;;3.55;1.75;;;10.10;99.90;;;;;;5015898;28;20174;-74
2022/10/07 04:14:41;;;;;;;7.10;2.58;;;10.10;99.90;;;;;;5015907;28;20190;-74
2022/10/07 04:17:07;;;;;;;4.67;2.10;;;10.10;99.90;;;;;;5016310;28;20173;-74
2022/10/07 04:19:32;;;;;;;5.43;2.17;;;10.10;99.90;;;;;;5016077;28;20650;-74
2022/10/07 04:22:00;;;;;;;5.30;1.80;;;10.10;99.90;;;;;;4999367;28;20568;-74
2022/10/07 04:24:27;;;;;;;5.07;3.15;;;10.10;99.90;;;;;;5015667;28;20194;-75
2022/10/07 04:26:53;;;;;;;4.90;2.22;;;10.10;99.90;;;;;;5016809;28;20170;-74
2022/10/07 04:29:19;;;;;;;3.07;1.80;;;10.10;99.90;;;;;;4999532;28;20315;-74
2022/10/07 04:31:46;;;;;;;5.38;2.00;;;10.10;99.90;;;;;;4999606;28;20177;-74
2022/10/07 04:34:13;;;;;;;7.50;2.67;;;10.00;99.90;;;;;;5015433;28;20295;-74
2022/10/07 04:36:40;;;;;;;5.50;1.40;;;10.00;99.90;;;;;;5015863;28;20268;-75
2022/10/07 04:39:09;;;;;;;5.57;1.80;;;10.00;99.90;;;;;;5015618;28;20616;-75
2022/10/07 04:41:41;;;;;;;4.72;1.70;;;10.00;99.90;;;;;;5015650;28;20174;-75
2022/10/07 04:44:12;;;;;;;6.78;2.25;;;10.00;99.90;;;;;;5015263;28;20226;-75
2022/10/07 04:46:46;;;;;;;6.88;1.90;;;10.00;99.90;;;;;;5015824;28;20178;-74
2022/10/07 04:49:13;;;;;;;4.07;1.85;;;10.00;99.90;;;;;;5015521;28;20174;-75
2022/10/07 04:51:40;;;;;;;3.97;2.27;;;10.00;99.90;;;;;;5033032;28;20177;-75
2022/10/07 04:54:07;;;;;;;6.30;1.92;;;10.00;99.90;;;;;;5014937;28;20652;-74
2022/10/07 04:56:53;;;;;;;8.20;1.83;;;10.00;99.90;;;;;;5032418;28;20585;-74
2022/10/07 04:59:22;;;;;;;3.85;1.38;;;9.90;99.90;;;;;;4999727;28;20194;-74
2022/10/07 05:01:48;;;;;;;7.43;1.90;;;9.90;99.90;;;;;;5015243;28;20530;-73
2022/10/07 05:04:14;;;;;;;5.32;1.65;;;9.90;99.90;;;;;;5015283;28;20216;-74
2022/10/07 05:06:40;;;;;;;4.37;2.40;;;9.90;99.90;;;;;;4999064;28;20170;-74
2022/10/07 05:09:09;;;;;;;6.40;2.05;;;9.90;99.90;;;;;;5015171;28;20173;-74
2022/10/07 05:11:38;;;;;;;6.13;2.05;;;9.90;99.90;;;;;;5015211;28;20180;-73
2022/10/07 05:14:10;;;;;;;7.82;2.67;;;9.90;99.90;;;;;;5014765;28;20577;-73
2022/10/07 05:16:36;;;;;;;5.82;2.78;;;9.90;99.90;;;;;;5015125;28;20525;-73
2022/10/07 05:19:03;;;;;;;8.73;1.73;;;9.90;99.90;;;;;;5014627;28;20691;-73
2022/10/07 05:21:29;;;;;;;9.53;2.40;;;9.90;99.90;;;;;;5014584;28;20162;-72
2022/10/07 05:23:55;;;;;;;5.60;2.15;;;9.90;99.90;;;;;;4997874;28;20189;-73
2022/10/07 05:26:27;;;;;;;4.32;1.60;;;9.90;99.90;;;;;;4998241;28;20181;-73
2022/10/07 05:28:58;;;;;;;6.28;1.90;;;9.90;99.90;;;;;;5014906;28;20177;-73
2022/10/07 05:31:30;;;;;;;4.10;1.70;;;9.90;99.90;;;;;;5014378;28;20170;-73
2022/10/07 05:33:59;;;;;;;4.88;2.60;;;9.90;99.90;;;;;;5014304;28;20197;-73
2022/10/07 05:36:25;;;;;;;7.22;2.50;;;9.90;99.90;;;;;;5014719;28;20507;-72
2022/10/07 05:38:58;;;;;;;4.85;1.40;;;9.90;99.90;;;;;;5014632;28;20174;-73
2022/10/07 05:41:28;;;;;;;5.68;2.13;;;9.90;99.90;;;;;;4998278;28;20170;-73
2022/10/07 05:43:55;;;;;;;6.20;2.38;;;9.90;99.90;;;;;;5014101;28;20197;-72
2022/10/07 05:46:22;;;;;;;6.27;2.23;;;9.90;99.90;;;;;;5032261;28;20177;-73
2022/10/07 05:48:53;;;;;;;4.78;1.90;;;9.90;99.90;;;;;;5014957;28;20565;-73
2022/10/07 05:51:23;;;;;;;9.20;2.47;;;9.80;99.90;;;;;;5013022;28;20528;-73
2022/10/07 05:53:54;;;;;;;8.02;2.22;;;9.80;99.90;;;;;;5013661;28;20206;-72
2022/10/07 05:56:20;;;;;;;8.27;2.53;;;9.80;99.90;;;;;;4994745;28;20174;-72
2022/10/07 05:58:48;;;;;;;5.35;1.90;;;9.80;99.90;;;;;;4994800;28;20166;-73
2022/10/07 06:01:19;;;;;;;5.05;1.90;;;9.90;99.90;;;;;;4994442;28;20277;-73
2022/10/07 06:03:55;;;;;;;3.72;1.80;;;9.90;99.90;;;;;;4994426;28;20180;-73
2022/10/07 06:06:24;;;;;;;5.25;2.25;;;9.90;99.90;;;;;;4978357;28;20802;-72
2022/10/07 06:08:52;;;;;;;4.82;2.10;;;9.90;99.90;;;;;;4994305;28;20174;-73
2022/10/07 06:14:05;;;;;;;4.15;1.77;;;9.90;99.90;;;;;;5013604;28;20274;-73
2022/10/07 06:16:31;;;;;;;8.55;2.08;;;9.90;99.90;;;;;;4997700;28;20166;-73
2022/10/07 06:18:58;;;;;;;5.65;1.80;;;9.90;99.90;;;;;;5014047;28;20161;-72
2022/10/07 06:21:26;;;;;;;5.88;1.98;;;10.00;99.90;;;;;;4997363;28;20186;-72
2022/10/07 06:23:57;;;;;;;6.25;1.85;;;10.00;99.90;;;;;;5013596;28;20552;-72
2022/10/07 06:26:26;;;;;;;2.88;1.73;;;10.10;99.90;;;;;;5014032;28;20192;-73
2022/10/07 06:28:53;;;;;;;5.13;2.00;;;10.10;99.90;;;;;;5014068;28;20524;-73
2022/10/07 06:31:24;;;;;;;4.18;1.92;;;10.10;99.90;;;;;;5013819;28;20190;-73
2022/10/07 06:33:54;;;;;;;4.20;2.47;;;10.20;99.90;;;;;;5013084;28;20212;-73
2022/10/07 06:36:22;;;;;;;8.00;1.88;;;10.20;99.90;;;;;;5013021;28;20170;-73
2022/10/07 06:38:52;;;;;;;11.25;1.83;;;10.20;99.90;;;;;;5013354;28;20189;-73
2022/10/07 06:41:22;;;;;;;8.88;1.65;;;10.20;99.90;;;;;;5012893;28;20227;-73
2022/10/07 06:44:00;;;;;;;5.18;2.05;;;10.30;99.90;;;;;;5013308;28;20280;-73
2022/10/07 06:46:26;;;;;;;7.97;2.67;;;10.40;99.90;;;;;;5030988;28;20509;-73
2022/10/07 06:48:53;;;;;;;3.78;1.65;;;10.50;99.90;;;;;;5013742;28;20169;-73
2022/10/07 06:51:20;;;;;;;6.90;2.60;;;10.50;99.90;;;;;;5013540;28;20646;-72
2022/10/07 06:53:53;;;;;;;2.63;1.70;;;10.50;99.90;;;;;;5013513;28;21248;-73
2022/10/07 06:56:19;;;;;;;6.47;1.90;;;10.60;99.90;;;;;;5014002;28;20165;-73
2022/10/07 06:58:47;;;;;;;5.68;2.13;;;10.60;99.90;;;;;;4997249;28;20176;-72
2022/10/07 07:01:15;;;;;;;4.93;2.72;;;10.70;99.90;;;;;;5017563;28;20245;-73
2022/10/07 07:03:41;;;;;;;5.10;2.40;;;10.80;99.90;;;;;;5016825;28;20174;-73
2022/10/07 07:06:09;;;;;;;3.50;2.10;;;10.80;99.90;;;;;;5017431;28;20219;-73
2022/10/07 07:08:37;;;;;;;7.57;3.08;;;10.80;99.90;;;;;;5000325;28;20178;-73
2022/10/07 07:13:58;;;;;;;8.27;2.85;;;10.90;99.90;;;;;;5017138;28;20307;-73
2022/10/07 07:16:25;;;;;;;8.00;2.22;;;11.10;99.90;;;;;;5017717;28;20642;-74
2022/10/07 07:18:53;;;;;;;6.60;2.08;;;11.20;99.90;;;;;;5017445;28;20634;-73
2022/10/07 07:21:21;;;;;;;6.00;2.30;;;11.30;99.90;;;;;;5014898;28;20732;-73
2022/10/07 07:23:48;;;;;;;5.28;2.90;;;11.40;99.90;;;;;;5015452;28;20213;-73
2022/10/07 07:26:14;;;;;;;6.18;2.42;;;11.50;99.90;;;;;;5034970;28;20153;-73
2022/10/07 07:28:40;;;;;;;5.30;2.67;;;11.60;99.90;;;;;;5035060;28;20819;-73
2022/10/07 07:31:11;;;;;;;7.57;3.13;;;11.80;99.90;;;;;;5017023;28;20174;-72
2022/10/07 07:33:38;;;;;;;8.48;3.03;;;11.90;99.90;;;;;;5016663;28;20267;-73
2022/10/07 07:36:15;;;;;;;7.75;2.83;;;12.00;99.90;;;;;;5034516;28;20257;-73
2022/10/07 07:38:52;;;;;;;4.35;2.42;;;12.20;99.90;;;;;;5000390;28;20169;-73
2022/10/07 07:41:27;;;;;;;6.00;2.30;;;12.40;99.90;;;;;;5000520;28;20179;-73
2022/10/07 07:43:56;;;;;;;5.28;2.40;;;12.50;99.90;;;;;;5016247;28;20200;-72
2022/10/07 07:46:27;;;;;;;7.25;2.85;;;12.70;99.90;;;;;;5016866;28;20260;-72
2022/10/07 07:48:54;;;;;;;5.60;3.30;;;12.90;99.90;;;;;;5016883;28;20619;-73
2022/10/07 07:51:21;;;;;;;6.45;2.22;;;13.30;99.90;;;;;;5016778;28;20180;-73
2022/10/07 07:53:51;;;;;;;5.80;3.43;;;13.70;99.90;;;;;;5016230;28;20202;-73
2022/10/07 07:56:19;;;;;;;6.23;2.53;;;14.30;99.90;;;;;;5000360;28;20596;-73
2022/10/07 07:58:45;;;;;;;5.17;2.77;;;15.10;99.90;;;;;;5034307;28;20635;-73
2022/10/07 08:01:14;;;;;;;4.83;2.07;;;15.70;99.90;;;;;;5016561;28;20571;-73
2022/10/07 08:03:45;;;;;;;8.17;2.40;;;16.30;99.90;;;;;;5016494;28;20671;-73
2022/10/07 08:06:13;;;;;;;6.90;2.77;;;17.00;99.90;;;;;;5017580;28;20575;-80
2022/10/07 08:08:41;;;;;;;3.97;2.10;;;17.80;99.90;;;;;;5017771;28;20607;-80
2022/10/07 08:11:09;;;;;;;2.93;1.80;;;18.60;99.90;;;;;;5034676;28;20560;-80
2022/10/07 08:13:38;;;;;;;7.50;2.50;;;19.50;99.90;;;;;;5016359;28;20651;-80
2022/10/07 08:16:05;;;;;;;4.00;1.93;;;20.40;99.90;;;;;;5017028;28;20569;-80
2022/10/07 08:18:31;;;;;;;6.00;2.63;;;21.00;99.90;;;;;;5017837;28;20579;-80
2022/10/07 08:21:00;;;;;;;3.63;2.00;;;21.40;99.90;;;;;;5000267;28;20934;-80
2022/10/07 08:23:29;;;;;;;4.17;2.33;;;21.70;99.90;;;;;;5033619;28;20572;-80
2022/10/07 08:25:56;;;;;;;4.80;2.00;;;21.80;99.90;;;;;;5016178;28;20576;-80
2022/10/07 08:28:23;;;;;;;4.20;2.13;;;22.10;99.90;;;;;;4999788;28;20587;-80
2022/10/07 08:30:53;;;;;;;4.67;1.87;;;22.50;99.90;;;;;;5016020;28;20653;-80
2022/10/07 08:33:20;;;;;;;4.60;2.13;;;22.70;99.90;;;;;;5015884;28;20647;-80
2022/10/07 08:36:00;;;;;;;6.20;2.00;;;23.00;99.90;;;;;;5033531;28;21182;-80
2022/10/07 08:38:34;;;;;;;4.60;2.03;;;23.30;99.90;;;;;;5033705;28;20580;-80
2022/10/07 08:41:15;;;;;;;4.80;2.57;;;23.60;99.90;;;;;;5033604;28;20950;-80
2022/10/07 08:43:45;;;;;;;7.43;2.40;;;23.90;99.90;;;;;;5033152;28;21619;-80
2022/10/07 08:46:25;;;;;;;4.60;1.90;;;24.30;99.50;;;;;;5038730;28;20572;-80
2022/10/07 08:48:59;;;;;;;6.73;2.07;;;24.50;97.60;;;;;;5015993;28;20564;-80
2022/10/07 08:51:40;;;;;;;4.53;2.20;;;24.60;96.60;;;;;;5033413;28;20564;-80
2022/10/07 08:54:12;;;;;;;3.27;1.90;;;24.90;96.90;;;;;;5015372;28;20658;-80
2022/10/07 08:56:39;;;;;;;5.50;2.57;;;24.90;93.30;;;;;;5033200;28;20588;-80
2022/10/07 08:59:22;;;;;;;7.03;2.47;;;25.00;94.40;;;;;;5018009;28;20565;-78
2022/10/07 09:01:48;;;;;;;5.00;2.30;;;25.30;94.00;;;;;;5023712;28;20691;-79
2022/10/07 09:04:45;;;;;;;6.80;2.80;;;25.20;92.50;;;;;;5042845;28;20865;-83
2022/10/07 09:07:20;;;;;;;6.13;3.07;;;25.50;92.30;;;;;;5010626;28;20609;-78
2022/10/07 09:09:53;;;;;;;4.60;2.47;;;25.70;91.70;;;;;;5037363;28;21011;-79
2022/10/07 09:12:36;;;;;;;6.00;2.97;;;25.90;91.60;;;;;;5013850;28;20601;-78
2022/10/07 09:15:04;;;;;;;8.43;2.50;;;26.30;90.50;;;;;;5027169;28;20632;-79
2022/10/07 09:17:36;;;;;;;6.47;2.43;;;26.50;90.00;;;;;;5033928;28;20577;-79
2022/10/07 09:20:16;;;;;;;4.73;2.80;;;26.70;86.30;;;;;;5035274;28;21002;-78
2022/10/07 09:22:56;;;;;;;6.90;2.03;;;26.80;86.80;;;;;;5016782;28;20588;-78
2022/10/07 09:25:32;;;;;;;5.57;2.10;;;27.10;85.50;;;;;;5024425;28;21214;-79
2022/10/07 09:27:58;;;;;;;5.50;3.00;;;27.00;81.20;;;;;;5048335;28;20592;-79
2022/10/07 09:30:27;;;;;;;3.73;2.20;;;27.10;82.10;;;;;;5047369;28;20573;-79
2022/10/07 09:32:54;;;;;;;5.00;2.37;;;27.30;81.40;;;;;;5043609;28;20728;-79
2022/10/07 09:35:23;;;;;;;5.87;2.50;;;27.60;81.30;;;;;;5049605;28;20620;-79
2022/10/07 09:37:58;;;;;;;4.23;2.57;;;28.00;76.30;;;;;;5056303;28;20568;-79
2022/10/07 09:40:26;;;;;;;5.77;2.00;;;28.10;76.00;;;;;;5028638;28;20596;-79
2022/10/07 09:42:53;;;;;;;6.57;1.90;;;28.10;73.20;;;;;;5055820;28;20600;-78
2022/10/07 09:45:31;;;;;;;6.33;2.40;;;28.30;75.40;;;;;;5056454;28;20639;-78
2022/10/07 09:48:06;;;;;;;4.40;2.00;;;28.60;75.10;;;;;;5049843;28;20568;-79
2022/10/07 09:50:38;;;;;;;3.20;1.53;;;29.10;74.10;;;;;;5030013;28;20576;-79
2022/10/07 09:53:23;;;;;;;4.30;2.30;;;29.60;74.40;;;;;;5048424;28;20619;-77
2022/10/07 09:55:51;;;;;;;6.43;2.50;;;30.10;73.50;;;;;;5045445;28;20604;-78
2022/10/07 09:58:18;;;;;;;4.83;1.57;;;30.30;71.10;;;;;;5035779;28;20641;-78
2022/10/07 10:00:51;;;;;;;5.03;1.80;;;30.50;69.90;;;;;;5047281;28;20565;-78
2022/10/07 10:03:17;;;;;;;2.87;1.20;;;30.70;66.20;;;;;;5053768;28;20591;-78
2022/10/07 10:05:59;;;;;;;7.03;2.80;;;30.60;65.80;;;;;;5055017;28;20591;-79
2022/10/07 10:08:41;;;;;;;3.83;1.73;;;30.50;62.80;;;;;;5055182;28;20579;-78
2022/10/07 10:11:19;;;;;;;6.23;1.70;;;30.30;62.50;;;;;;5039351;28;20566;-79
2022/10/07 10:13:47;;;;;;;4.60;1.90;;;30.30;62.10;;;;;;5032838;28;21196;-78
2022/10/07 10:16:34;;;;;;;6.27;2.30;;;30.20;63.60;;;;;;5008183;28;20572;-78
2022/10/07 10:19:21;;;;;;;4.20;1.80;;;30.20;63.10;;;;;;5020638;28;21129;-78
2022/10/07 10:21:52;;;;;;;5.13;1.40;;;30.00;60.70;;;;;;5023977;28;20570;-78
2022/10/07 10:26:24;;;;;;;3.60;1.40;;;29.80;60.50;;;;;;5005171;28;20618;-78
2022/10/07 10:27:29;;;;;;;6.03;1.30;;;29.90;62.00;;;;;;5024649;28;20695;-80
2022/10/07 10:30:05;;;;;;;5.93;1.67;;;29.80;59.20;;;;;;4998556;28;20598;-80
2022/10/07 10:32:52;;;;;;;6.30;1.60;;;29.80;59.90;;;;;;5020819;28;20578;-79
2022/10/07 10:35:27;;;;;;;5.13;1.70;;;29.50;58.80;;;;;;5004372;28;20633;-79
2022/10/07 10:38:28;;;;;;;3.10;1.50;;;29.40;59.30;;;;;;5006162;28;20698;-78
2022/10/07 10:41:27;;;;;;;3.37;1.87;;;29.30;58.90;;;;;;5033124;28;20589;-78
2022/10/07 10:44:22;;;;;;;4.60;1.47;;;29.40;59.80;;;;;;4986932;28;20777;-78
2022/10/07 10:46:56;;;;;;;5.77;1.90;;;29.40;59.10;;;;;;5013282;28;20605;-80
2022/10/07 10:49:48;;;;;;;4.70;1.67;;;29.30;58.60;;;;;;5029302;28;20588;-79
2022/10/07 10:52:20;;;;;;;3.50;1.13;;;29.40;59.20;;;;;;5048685;28;20566;-80
2022/10/07 10:55:11;;;;;;;5.30;1.33;;;29.60;58.70;;;;;;5048621;28;20584;-79
2022/10/07 10:58:01;;;;;;;3.73;1.23;;;29.80;59.60;;;;;;5029670;28;20579;-79
2022/10/07 11:00:39;;;;;;;4.70;1.00;;;29.70;56.50;;;;;;5021143;28;20556;-79
2022/10/07 11:03:15;;;;;;;5.03;1.27;;;29.40;56.90;;;;;;5028795;28;20588;-79
2022/10/07 11:05:42;;;;;;;3.53;1.30;;;29.30;56.70;;;;;;5029531;28;20608;-79
2022/10/07 11:08:22;;;;;;;5.17;1.30;;;29.40;56.80;;;;;;5048028;28;20585;-80
2022/10/07 11:10:54;;;;;;;4.27;1.13;;;29.40;56.40;;;;;;5047851;28;20573;-79
2022/10/07 11:13:46;;;;;;;4.77;1.40;;;29.50;56.70;;;;;;5021603;28;20647;-82
2022/10/07 11:16:21;;;;;;;6.30;1.40;;;29.30;55.60;;;;;;5028364;28;20588;-81
2022/10/07 11:18:54;;;;;;;3.30;1.00;;;29.40;55.70;;;;;;5025453;28;20579;-79
2022/10/07 11:21:25;;;;;;;3.87;1.10;;;29.50;55.80;;;;;;5008368;28;20608;-80
2022/10/07 11:23:57;;;;;;;4.63;1.10;;;29.70;55.60;;;;;;5048589;28;20589;-81
2022/10/07 11:26:46;;;;;;;3.53;1.00;;;29.70;55.10;;;;;;5031698;28;20652;-81
2022/10/07 11:29:49;;;;;;;4.77;1.40;;;29.70;54.00;;;;;;5042759;28;20568;-83
2022/10/07 11:32:41;;;;;;;3.10;1.00;;;29.80;54.50;;;;;;5019945;28;20578;-82
2022/10/07 11:35:46;;;;;;;4.50;1.10;;;29.90;53.50;;;;;;5000855;28;20613;-81
2022/10/07 11:38:20;;;;;;;3.37;1.17;;;29.70;53.40;;;;;;5013317;28;20600;-80
2022/10/07 11:40:54;;;;;;;4.70;0.97;;;29.70;52.80;;;;;;5036305;28;20622;-81
2022/10/07 11:43:39;;;;;;;7.20;1.73;;;29.30;52.00;;;;;;5020898;28;20582;-80
2022/10/07 11:46:13;;;;;;;2.60;1.10;;;29.10;52.10;;;;;;5035717;28;20670;-81
2022/10/07 11:48:44;;;;;;;3.30;1.07;;;29.10;52.50;;;;;;5022839;28;20577;-78
2022/10/07 11:51:33;;;;;;;5.60;1.27;;;29.10;53.00;;;;;;5037772;28;20591;-80
2022/10/07 11:54:01;;;;;;;3.83;0.87;;;29.00;52.00;;;;;;5045530;28;20636;-80
2022/10/07 11:56:38;;;;;;;3.50;0.80;;;29.00;52.30;;;;;;5044863;28;21252;-80
2022/10/07 11:59:06;;;;;;;5.60;1.67;;;28.90;52.20;;;;;;5045771;28;20702;-79
2022/10/07 12:01:35;;;;;;;3.63;1.00;;;28.90;52.10;;;;;;5047537;28;20565;-80
2022/10/07 12:04:19;;;;;;;6.33;1.00;;;28.90;52.30;;;;;;5048503;28;21038;-80
2022/10/07 12:07:22;;;;;;;2.83;0.90;;;28.90;52.40;;;;;;5043929;28;20647;-78
2022/10/07 12:10:17;;;;;;;5.40;0.97;;;28.80;52.00;;;;;;5041047;28;20567;-79
2022/10/07 12:12:48;;;;;;;3.90;1.03;;;28.80;52.10;;;;;;5047077;28;20612;-79
2022/10/07 12:15:38;;;;;;;5.43;1.20;;;28.60;51.60;;;;;;5044013;28;20600;-79
2022/10/07 12:18:08;;;;;;;6.50;1.23;;;28.40;51.50;;;;;;5026937;28;20568;-78
2022/10/07 12:20:54;;;;;;;2.80;1.03;;;28.30;51.60;;;;;;5023525;28;20613;-79
2022/10/07 12:23:24;;;;;;;3.03;1.00;;;28.20;51.30;;;;;;5036211;28;20560;-79
2022/10/07 12:26:27;;;;;;;3.00;0.87;;;28.10;51.60;;;;;;5026249;28;20577;-78
2022/10/07 12:28:55;;;;;;;5.00;0.90;;;27.90;51.20;;;;;;5055611;28;20572;-78
2022/10/07 12:31:21;;;;;;;4.83;1.27;;;27.70;51.10;;;;;;5054978;28;20572;-79
2022/10/07 12:34:07;;;;;;;3.50;1.27;;;27.50;51.00;;;;;;5044832;28;21101;-78
2022/10/07 12:36:33;;;;;;;4.33;1.20;;;27.20;51.20;;;;;;5028927;28;20174;-79
2022/10/07 12:39:01;;;;;;;7.10;1.20;;;26.80;50.10;;;;;;5025424;28;20568;-79
2022/10/07 12:41:28;;;;;;;4.43;1.17;;;26.40;49.80;;;;;;5050089;28;20568;-79
2022/10/07 12:44:16;;;;;;;4.80;1.10;;;26.00;49.60;;;;;;5049375;28;20228;-79
2022/10/07 12:46:49;;;;;;;5.40;1.03;;;25.50;50.00;;;;;;5046439;28;20640;-80
2022/10/07 12:49:39;;;;;;;3.30;1.17;;;25.20;50.00;;;;;;5045593;28;20659;-80
2022/10/07 12:52:18;;;;;;;6.17;1.90;;;24.90;50.70;;;;;;5020311;28;20585;-80
2022/10/07 12:54:52;;;;;;;3.67;1.13;;;24.50;50.30;;;;;;5034060;28;20960;-80
2022/10/07 12:57:22;;;;;;;5.40;1.40;;;24.10;50.50;;;;;;5047827;28;20582;-80
2022/10/07 13:00:06;;;;;;;3.67;1.03;;;23.80;50.60;;;;;;5044731;28;20588;-80
2022/10/07 13:02:42;;;;;;;5.37;1.50;;;23.50;50.90;;;;;;5043952;28;20630;-80
2022/10/07 13:05:33;;;;;;;10.43;2.03;;;23.20;51.40;;;;;;5041589;28;20626;-80
2022/10/07 13:08:14;;;;;;;5.40;1.30;;;23.00;51.50;;;;;;5020507;28;20584;-80
2022/10/07 13:10:59;;;;;;;3.10;1.10;;;22.80;51.90;;;;;;5032307;28;20632;-80
2022/10/07 13:13:25;;;;;;;5.90;1.17;;;22.60;52.20;;;;;;5046376;28;20730;-80
2022/10/07 13:16:01;;;;;;;6.50;1.10;;;22.50;52.70;;;;;;5052560;28;20588;-80
2022/10/07 13:18:54;;;;;;;4.33;1.03;;;22.40;52.30;;;;;;5051390;28;20231;-80
2022/10/07 13:21:20;;;;;;;2.30;0.77;;;22.20;52.20;;;;;;5037778;28;20974;-80
2022/10/07 13:23:54;;;;;;;3.40;1.00;;;22.10;52.40;;;;;;5050200;28;21212;-81
2022/10/07 13:26:21;;;;;;;3.03;0.80;;;22.00;52.80;;;;;;5048636;28;20591;-80